METAR Data
IDs: Format: Raw Decoded Include TAF

Data at: 1541 UTC 26 Apr 2019

KROW 261451Z 17016KT 10SM CLR 18/09 A3026 RMK AO2 SLP193 T01830089 51009
KROW 261351Z 17007KT 10SM CLR 17/09 A3025 RMK AO2 SLP192 T01670089
KROW 261251Z 16005KT 10SM CLR 14/09 A3024 RMK AO2 SLP188 T01390089
KROW 261151Z 13005KT 10SM CLR 15/09 A3022 RMK AO2 SLP177 T01500089 10189 20150 51011
KROW 261051Z AUTO 09005KT 10SM CLR 16/09 A3021 RMK AO2 SLP173 T01560089
KROW 260951Z AUTO 09005KT 10SM CLR 16/09 A3020 RMK AO2 SLP167 T01610089
KROW 260851Z AUTO 11008KT 10SM CLR 17/08 A3019 RMK AO2 SLP162 T01670083 51004
KROW 260751Z AUTO 00000KT 10SM CLR 18/08 A3019 RMK AO2 SLP162 T01780083
KROW 260651Z AUTO 04004KT 10SM CLR 18/08 A3018 RMK AO2 SLP160 T01780078 403170094
KROW 260551Z AUTO 00000KT 10SM CLR 19/08 A3017 RMK AO2 SLP159 T01890078 10283 20189 51020
KROW 260451Z AUTO 13004KT 10SM CLR 19/08 A3015 RMK AO2 SLP155 T01940078
KROW 260351Z AUTO 12005KT 10SM CLR 21/07 A3014 RMK AO2 SLP152 T02110072
KROW 260251Z AUTO 10006KT 10SM CLR 23/07 A3011 RMK AO2 LTG DSNT SW SLP144 T02280072 53026
KROW 260151Z 08007KT 10SM CLR 23/07 A3007 RMK AO2 SLP133 T02330072
KROW 260051Z 08011KT 10SM CLR 26/07 A3004 RMK AO2 SLP125 T02610072
KROW 252351Z 08011KT 10SM CLR 29/07 A3002 RMK AO2 SLP115 T02890072 10317 20267 53005
KROW 252251Z 08014KT 10SM SCT110 29/07 A3001 RMK AO2 SLP111 T02890067
KROW 252151Z 04010G16KT 10SM CLR 32/03 A3000 RMK AO2 SLP103 T03170033
KROW 252051Z 04008KT 10SM CLR 31/04 A3000 RMK AO2 SLP104 T03060039 58002
KROW 251951Z 04013KT 10SM CLR 29/04 A3001 RMK AO2 SLP107 T02940044
KROW 251851Z 06009KT 10SM CLR 28/06 A3001 RMK AO2 SLP105 T02830056
KROW 251751Z 01010G15KT 10SM CLR 26/07 A3001 RMK AO2 SLP109 T02610072 10261 20094 50007
KROW 251651Z VRB03KT 10SM CLR 22/09 A3001 RMK AO2 SLP115 T02220094
KROW 251551Z 06005KT 10SM CLR 19/10 A3001 RMK AO2 SLP114 T01940100
KROW 251451Z 00000KT 10SM CLR 16/09 A2999 RMK AO2 SLP110 T01610094 51017
KROW 251351Z 02004KT 9SM CLR 13/09 A2997 RMK AO2 SLP105 T01330089
KROW 251251Z 00000KT 7SM CLR 11/08 A2995 RMK AO2 SLP098 T01060083
KROW 251151Z 02003KT 10SM CLR 10/07 A2993 RMK AO2 SLP091 T01000072 10150 20094 53007
KROW 251051Z AUTO 00000KT 10SM CLR 10/08 A2992 RMK AO2 SLP087 T01000078
KROW 250951Z AUTO 00000KT 10SM CLR 11/08 A2991 RMK AO2 SLP086 T01060078
KROW 250851Z AUTO 23004KT 10SM CLR 11/09 A2991 RMK AO2 SLP083 T01110089 58005
KROW 250751Z AUTO 20004KT 10SM CLR 12/09 A2992 RMK AO2 SLP087 T01220089
KROW 250651Z AUTO 18007KT 10SM CLR 14/09 A2993 RMK AO2 SLP088 T01440094 402280106
KROW 250551Z AUTO 19007KT 10SM BKN120 15/09 A2993 RMK AO2 SLP087 T01500094 10228 20144 50002
KROW 250451Z AUTO 20006KT 10SM CLR 14/09 A2994 RMK AO2 SLP094 T01440089
KROW 250351Z AUTO 19007KT 10SM CLR 16/09 A2993 RMK AO2 SLP092 T01610089